createdAt,value
2022-09-12T00:02:38.099Z,61.91
2022-09-12T00:08:09.430Z,61.48
2022-09-12T00:13:41.976Z,61.63
2022-09-12T00:19:13.591Z,61.71
2022-09-12T00:24:44.743Z,61.86
2022-09-12T00:30:15.921Z,62.00
2022-09-12T00:35:49.795Z,61.92
2022-09-12T00:41:29.410Z,61.71
2022-09-12T00:47:16.896Z,61.90
2022-09-12T00:52:54.129Z,61.84
2022-09-12T00:58:37.275Z,61.72
2022-09-12T01:04:10.342Z,61.59
2022-09-12T01:09:43.111Z,61.65
2022-09-12T01:15:14.374Z,61.84
2022-09-12T01:21:06.005Z,61.63
2022-09-12T01:27:04.903Z,61.61
2022-09-12T01:32:42.314Z,61.85
2022-09-12T01:38:28.163Z,61.71
2022-09-12T01:44:02.324Z,61.72
2022-09-12T01:49:52.260Z,61.72
2022-09-12T01:55:43.775Z,62.00
2022-09-12T02:01:18.391Z,61.83
2022-09-12T02:06:55.551Z,61.72
2022-09-12T02:12:31.712Z,61.77
2022-09-12T02:18:05.638Z,61.74
2022-09-12T02:23:41.855Z,61.55
2022-09-12T02:29:13.235Z,61.82
2022-09-12T02:34:44.507Z,61.87
2022-09-12T02:40:16.114Z,62.02
2022-09-12T02:45:47.230Z,61.91
2022-09-12T02:51:23.007Z,61.83
2022-09-12T02:56:55.027Z,62.00
2022-09-12T03:02:59.166Z,61.98
2022-09-12T03:08:51.418Z,61.98
2022-09-12T03:14:34.460Z,61.82
2022-09-12T03:20:24.065Z,61.77
2022-09-12T03:26:01.496Z,61.88
2022-09-12T03:31:32.916Z,61.78
2022-09-12T03:37:04.357Z,61.78
2022-09-12T03:42:35.284Z,62.12
2022-09-12T03:48:06.984Z,61.97
2022-09-12T03:53:38.027Z,62.09
2022-09-12T03:59:09.507Z,61.88
2022-09-12T04:04:46.586Z,62.01
2022-09-12T04:10:17.954Z,62.33
2022-09-12T04:15:59.560Z,62.07
2022-09-12T04:21:31.132Z,62.00
2022-09-12T04:27:07.182Z,61.58
2022-09-12T04:32:38.843Z,62.07
2022-09-12T04:38:10.049Z,62.20
2022-09-12T04:43:41.399Z,62.34
2022-09-12T04:49:14.388Z,62.06
2022-09-12T04:54:45.668Z,62.21
2022-09-12T05:00:17.077Z,62.29
2022-09-12T05:05:48.219Z,62.33
2022-09-12T05:11:53.013Z,62.42
2022-09-12T05:17:22.374Z,62.27
2022-09-12T05:22:53.148Z,62.42
2022-09-12T05:28:26.237Z,62.34
2022-09-12T05:33:58.199Z,62.60
2022-09-12T05:39:28.956Z,62.55
2022-09-12T05:44:59.931Z,62.50
2022-09-12T05:50:31.129Z,62.68
2022-09-12T05:56:13.631Z,62.64
2022-09-12T06:01:44.781Z,62.79
2022-09-12T06:07:15.809Z,62.85
2022-09-12T06:12:47.738Z,62.77
2022-09-12T06:18:18.748Z,63.09
2022-09-12T06:23:50.238Z,62.72
2022-09-12T06:29:21.390Z,62.75
2022-09-12T06:34:52.771Z,62.62
2022-09-12T06:40:23.757Z,62.75
2022-09-12T06:45:54.711Z,62.85
2022-09-12T06:51:26.586Z,62.88
2022-09-12T06:56:57.770Z,62.75
2022-09-12T07:02:29.133Z,63.33
2022-09-12T07:08:00.239Z,63.77
2022-09-12T07:13:31.074Z,63.27
2022-09-12T07:19:04.119Z,63.24
2022-09-12T07:24:35.295Z,63.12
2022-09-12T07:30:08.034Z,62.81
2022-09-12T07:35:39.559Z,62.62
2022-09-12T07:41:12.888Z,62.73
2022-09-12T07:46:44.123Z,62.87
2022-09-12T07:52:14.959Z,62.85
2022-09-12T07:57:50.797Z,63.20
2022-09-12T08:03:22.236Z,63.65
2022-09-12T08:08:55.867Z,63.35
2022-09-12T08:14:27.670Z,63.52
2022-09-12T08:19:59.094Z,63.57
2022-09-12T08:25:30.016Z,63.41
2022-09-12T08:31:02.450Z,63.27
2022-09-12T08:36:34.477Z,63.51
2022-09-12T08:42:06.722Z,63.64
2022-09-12T08:47:43.605Z,63.44
2022-09-12T08:53:18.432Z,63.45
2022-09-12T08:58:49.689Z,63.74
2022-09-12T09:04:51.208Z,63.08
2022-09-12T09:10:35.543Z,62.19
2022-09-12T09:16:39.446Z,62.56
2022-09-12T09:22:28.016Z,62.76
2022-09-12T09:28:05.206Z,62.98
2022-09-12T09:33:36.497Z,62.43
2022-09-12T09:39:16.953Z,62.88
2022-09-12T09:44:49.308Z,62.71
2022-09-12T09:50:20.673Z,63.37
2022-09-12T09:55:54.074Z,62.97
2022-09-12T10:01:25.141Z,63.38
2022-09-12T10:07:01.808Z,63.00
2022-09-12T10:12:33.733Z,62.89
2022-09-12T10:18:05.039Z,63.30
2022-09-12T10:23:37.918Z,62.89
2022-09-12T10:29:17.191Z,62.85
2022-09-12T10:34:48.519Z,62.26
2022-09-12T10:40:29.072Z,62.88
2022-09-12T10:46:21.906Z,62.10
2022-09-12T10:51:54.714Z,61.70
2022-09-12T10:57:41.259Z,61.83
2022-09-12T11:03:23.023Z,61.22
2022-09-12T11:09:06.480Z,60.64
2022-09-12T11:15:03.173Z,59.70
2022-09-12T11:21:10.023Z,60.16
2022-09-12T11:26:51.292Z,59.97
2022-09-12T11:32:28.324Z,59.26
2022-09-12T11:38:18.498Z,58.97
2022-09-12T11:44:03.782Z,57.65
2022-09-12T11:49:35.717Z,58.79
2022-09-12T11:55:17.384Z,59.64
2022-09-12T12:00:52.078Z,59.76
2022-09-12T12:06:56.327Z,59.36
2022-09-12T12:12:29.181Z,59.59
2022-09-12T12:18:08.226Z,59.73
2022-09-12T12:23:40.611Z,59.75
2022-09-12T12:29:13.626Z,59.40
2022-09-12T12:34:45.188Z,59.77
2022-09-12T12:40:23.030Z,59.89
2022-09-12T12:46:05.835Z,59.88
2022-09-12T12:51:56.107Z,60.23
2022-09-12T12:57:41.001Z,59.97
2022-09-12T13:03:28.698Z,60.17
2022-09-12T13:09:20.052Z,60.15
2022-09-12T13:14:59.895Z,59.99
2022-09-12T13:20:34.291Z,60.37
2022-09-12T13:26:12.548Z,60.27
2022-09-12T13:31:47.421Z,60.17
2022-09-12T13:37:28.695Z,60.42
2022-09-12T13:43:15.587Z,60.61
2022-09-12T13:48:47.101Z,60.32
2022-09-12T13:54:23.822Z,60.30
2022-09-12T13:59:57.753Z,60.55
2022-09-12T14:05:29.047Z,60.19
2022-09-12T14:11:00.446Z,60.57
2022-09-12T14:16:33.801Z,60.38
2022-09-12T14:22:04.855Z,60.56
2022-09-12T14:27:46.132Z,60.51
2022-09-12T14:33:19.932Z,60.07
2022-09-12T14:39:01.131Z,60.34
2022-09-12T14:44:33.612Z,60.43
2022-09-12T14:50:08.249Z,60.54
2022-09-12T14:55:48.396Z,60.04
2022-09-12T15:01:19.620Z,60.16
2022-09-12T15:06:50.582Z,60.19
2022-09-12T15:12:23.073Z,60.17
2022-09-12T15:17:54.221Z,60.27
2022-09-12T15:23:33.357Z,60.21
2022-09-12T15:29:04.589Z,60.43
2022-09-12T15:34:35.834Z,60.51
2022-09-12T15:40:08.352Z,60.38
2022-09-12T15:45:41.918Z,60.62
2022-09-12T15:51:17.192Z,60.49
2022-09-12T15:56:48.524Z,60.65
2022-09-12T16:02:19.355Z,60.72
2022-09-12T16:07:53.531Z,60.93
2022-09-12T16:13:25.024Z,60.48
2022-09-12T16:18:55.911Z,60.78
2022-09-12T16:24:26.811Z,60.66
2022-09-12T16:29:57.711Z,60.82
2022-09-12T16:35:29.044Z,60.68
2022-09-12T16:41:01.824Z,60.62
2022-09-12T16:46:33.146Z,60.51
2022-09-12T16:52:06.025Z,60.43
2022-09-12T16:57:37.256Z,60.53
2022-09-12T17:03:08.660Z,60.62
2022-09-12T17:08:45.160Z,60.31
2022-09-12T17:14:16.761Z,60.08
2022-09-12T17:19:48.267Z,60.01
2022-09-12T17:25:19.639Z,59.95
2022-09-12T17:31:17.384Z,60.20
2022-09-12T17:36:49.011Z,60.06
2022-09-12T17:42:22.802Z,60.00
2022-09-12T17:47:55.275Z,60.41
2022-09-12T17:53:26.789Z,60.43
2022-09-12T17:58:58.707Z,60.21
2022-09-12T18:04:30.072Z,60.45
2022-09-12T18:10:01.502Z,60.80
2022-09-12T18:15:36.284Z,60.87
2022-09-12T18:21:09.043Z,60.57
2022-09-12T18:26:40.177Z,60.70
2022-09-12T18:32:11.300Z,60.52
2022-09-12T18:37:44.077Z,60.78
2022-09-12T18:43:15.020Z,60.65
2022-09-12T18:48:46.460Z,60.74
2022-09-12T18:54:18.186Z,60.26
2022-09-12T18:59:50.058Z,60.56
2022-09-12T19:05:21.528Z,60.22
2022-09-12T19:10:56.701Z,60.67
2022-09-12T19:16:29.220Z,60.62
2022-09-12T19:22:00.648Z,60.33
2022-09-12T19:27:31.466Z,59.94
2022-09-12T19:33:03.216Z,60.28
2022-09-12T19:38:34.689Z,60.23
2022-09-12T19:44:05.854Z,59.70
2022-09-12T19:49:37.075Z,59.88
2022-09-12T19:55:09.299Z,59.72
2022-09-12T20:00:40.383Z,59.53
2022-09-12T20:06:14.388Z,59.51
2022-09-12T20:11:45.335Z,59.83
2022-09-12T20:17:16.808Z,59.92
2022-09-12T20:22:51.907Z,59.96
2022-09-12T20:28:22.972Z,60.18
2022-09-12T20:33:55.007Z,60.04
2022-09-12T20:39:26.069Z,60.44
2022-09-12T20:44:57.581Z,60.31
2022-09-12T20:50:28.752Z,60.14
2022-09-12T20:55:59.864Z,60.14
2022-09-12T21:01:31.902Z,60.63
2022-09-12T21:07:03.273Z,60.83
2022-09-12T21:12:34.405Z,60.16
2022-09-12T21:18:06.017Z,60.56
2022-09-12T21:23:37.589Z,60.20
2022-09-12T21:29:08.573Z,60.40
2022-09-12T21:34:41.890Z,59.86
2022-09-12T21:40:12.603Z,60.39
2022-09-12T21:45:43.780Z,60.48
2022-09-12T21:51:14.680Z,60.13
2022-09-12T21:56:45.654Z,60.28
2022-09-12T22:02:16.833Z,60.40
2022-09-12T22:07:48.257Z,60.36
2022-09-12T22:13:19.132Z,60.38
2022-09-12T22:18:51.084Z,60.29
2022-09-12T22:24:28.036Z,60.51
2022-09-12T22:29:59.300Z,60.02
2022-09-12T22:35:30.312Z,60.61
2022-09-12T22:41:11.087Z,60.49
2022-09-12T22:46:42.125Z,60.22
2022-09-12T22:52:16.285Z,60.31
2022-09-12T22:57:47.422Z,60.24
2022-09-12T23:03:19.573Z,60.25
2022-09-12T23:08:52.123Z,60.23
2022-09-12T23:14:22.995Z,60.45
2022-09-12T23:19:53.978Z,60.70
2022-09-12T23:25:26.367Z,60.77
2022-09-12T23:30:57.968Z,60.62
2022-09-12T23:36:29.930Z,60.63
2022-09-12T23:42:00.833Z,60.74
2022-09-12T23:47:31.912Z,60.77
2022-09-12T23:53:02.974Z,60.41
2022-09-12T23:58:33.997Z,60.70
